CYAY

Saint Anthony Airport

St. Anthony, Canada

CYAY 200003Z AUTO 22014G19KT 6SM BR OVC003 15/15 A3010 RMK SLP196

Observed Flight Rules
Sep-20 @ 00:03 UTC (20 minutes ago)
 
Low Instrument Flight Rules
Wind Visibility Clouds Conditions
220° at 14 knots
 Gusting to 19 knots
6 miles
  • Overcast at 300' AGL
  • Mist
Temperatures Readings
Current 15°C / 59°F
Dewpoint 15°C / 59°F
Humidity 100%
Altimeter 30.1" Hg
Pressure 1019.6 hPa
Elevation 28
Observed Flight Rules
Sep-20 @ 00:03 UTC
(20 minutes ago)
 
LIFR
Wind Visibility
220° at 14 knots
 Gusting to 19 knots
6 miles
Clouds Conditions
  • Overcast at 300' AGL
  • Mist
Temperature Dewpoint
15°C / 59°F 15°C / 59°F
Humidity Altimeter Pressure
100% 30.1" Hg 1019.6 hPa